Time;durP1;ratioP1;P1;durP2;ratioP2;P2;SDS_P1;SDS_P2;PMS_P1;PMS_P2;Temp;Humidity;BMP_temperature;BMP_pressure;BME280_temperature;BME280_humidity;BME280_pressure;Samples;Min_cycle;Max_cycle;Signal;HPM_P1;HPM_P2
2023/11/21 00:00:13;;;;;;;9.40;3.25;;;9.20;99.90;;;;;;5029110;28;20026;-94
2023/11/21 00:02:41;;;;;;;6.32;2.30;;;9.20;99.90;;;;;;5027881;28;20130;-95
2023/11/21 00:05:11;;;;;;;7.88;2.55;;;9.20;99.90;;;;;;5028395;28;20022;-91
2023/11/21 00:07:37;;;;;;;7.93;3.75;;;9.20;99.90;;;;;;4990907;28;20033;-94
2023/11/21 00:10:07;;;;;;;7.03;2.33;;;9.20;99.90;;;;;;5025808;28;20026;-94
2023/11/21 00:12:34;;;;;;;6.00;2.88;;;9.20;99.90;;;;;;5027106;28;20024;-95
2023/11/21 00:15:00;;;;;;;4.30;1.90;;;9.20;99.90;;;;;;5026646;28;20105;-93
2023/11/21 00:17:25;;;;;;;5.85;2.22;;;9.30;99.90;;;;;;5026282;28;20025;-94
2023/11/21 00:19:52;;;;;;;5.25;1.90;;;9.20;99.90;;;;;;5027150;28;20061;-95
2023/11/21 00:22:18;;;;;;;8.40;2.38;;;9.30;99.90;;;;;;5009581;28;20053;-94
2023/11/21 00:24:44;;;;;;;5.60;2.40;;;9.20;99.90;;;;;;5026770;28;20037;-93
2023/11/21 00:27:09;;;;;;;2.97;2.08;;;9.20;99.90;;;;;;5026135;28;20033;-94
2023/11/21 00:29:35;;;;;;;6.22;2.45;;;9.20;99.90;;;;;;5009308;28;20028;-95
2023/11/21 00:32:01;;;;;;;7.78;2.30;;;9.30;99.90;;;;;;5023402;28;20057;-94
2023/11/21 00:34:27;;;;;;;6.47;2.95;;;9.30;99.90;;;;;;5027330;28;20030;-94
2023/11/21 00:36:53;;;;;;;6.05;2.08;;;9.20;99.90;;;;;;5008315;28;20026;-95
2023/11/21 00:39:18;;;;;;;5.50;2.30;;;9.30;99.90;;;;;;5026183;28;20052;-94
2023/11/21 00:41:44;;;;;;;8.25;2.47;;;9.20;99.90;;;;;;5026395;28;20444;-94
2023/11/21 00:44:11;;;;;;;7.82;2.75;;;9.20;99.90;;;;;;5009105;28;20499;-94
2023/11/21 00:46:36;;;;;;;6.03;3.00;;;9.20;99.90;;;;;;5018947;28;20034;-94
2023/11/21 00:49:04;;;;;;;6.80;2.10;;;9.30;99.90;;;;;;5009001;28;20036;-94
2023/11/21 00:51:30;;;;;;;9.23;2.28;;;9.20;99.90;;;;;;5009350;28;20022;-93
2023/11/21 00:53:56;;;;;;;5.30;1.80;;;9.30;99.90;;;;;;5009829;28;20049;-95
2023/11/21 00:56:22;;;;;;;6.25;2.53;;;9.30;99.90;;;;;;5026415;28;20026;-94
2023/11/21 00:58:52;;;;;;;5.15;2.47;;;9.30;99.90;;;;;;5023979;28;20041;-95
2023/11/21 01:01:24;;;;;;;6.63;3.20;;;9.30;99.90;;;;;;5026004;28;20033;-94
2023/11/21 01:03:50;;;;;;;7.03;2.00;;;9.20;99.90;;;;;;5026470;28;20044;-95
2023/11/21 01:06:16;;;;;;;9.93;3.05;;;9.20;99.90;;;;;;5025470;28;20045;-92
2023/11/21 01:08:44;;;;;;;5.28;2.00;;;9.30;99.90;;;;;;5026409;28;20036;-90
2023/11/21 01:11:12;;;;;;;7.15;2.53;;;9.30;99.90;;;;;;5027022;28;20026;-94
2023/11/21 01:13:39;;;;;;;8.85;1.92;;;9.30;99.90;;;;;;5009204;28;20018;-94
2023/11/21 01:16:06;;;;;;;5.63;2.22;;;9.30;99.90;;;;;;5004193;28;20022;-93
2023/11/21 01:18:32;;;;;;;4.47;1.60;;;9.30;99.90;;;;;;5006418;28;20057;-94
2023/11/21 01:20:58;;;;;;;6.18;2.90;;;9.30;99.90;;;;;;5008145;28;20353;-95
2023/11/21 01:23:23;;;;;;;6.13;3.35;;;9.30;99.90;;;;;;5007366;28;20025;-94
2023/11/21 01:25:51;;;;;;;9.88;3.13;;;9.20;99.90;;;;;;5024628;28;20026;-93
2023/11/21 01:28:16;;;;;;;;;;;9.30;99.90;;;;;;5025068;28;20041;-95
2023/11/21 01:30:42;;;;;;;4.95;2.40;;;9.20;99.90;;;;;;5015663;28;19906;-93
2023/11/21 01:33:08;;;;;;;4.65;2.45;;;9.30;99.90;;;;;;5018452;28;20018;-92
2023/11/21 01:35:34;;;;;;;7.15;3.35;;;9.20;99.90;;;;;;5023774;28;20104;-94
2023/11/21 01:38:00;;;;;;;7.88;3.03;;;9.20;99.90;;;;;;5025217;28;20022;-93
2023/11/21 01:40:25;;;;;;;4.57;2.05;;;9.20;99.90;;;;;;5025227;28;20052;-95
2023/11/21 01:42:53;;;;;;;6.05;2.78;;;9.10;99.90;;;;;;5007824;28;20029;-95
2023/11/21 01:45:19;;;;;;;8.25;3.60;;;9.10;99.90;;;;;;5024541;28;20108;-94
2023/11/21 01:47:45;;;;;;;11.20;3.28;;;9.10;99.90;;;;;;5004783;28;20026;-95
2023/11/21 01:50:16;;;;;;;3.55;1.67;;;9.10;99.90;;;;;;5014669;28;20026;-93
2023/11/21 01:52:45;;;;;;;6.97;2.88;;;9.10;99.90;;;;;;5025561;28;20032;-95
2023/11/21 01:55:12;;;;;;;4.25;1.50;;;9.00;99.90;;;;;;5006774;28;20058;-94
2023/11/21 01:57:38;;;;;;;9.13;2.72;;;9.00;99.90;;;;;;5003995;28;20022;-94
2023/11/21 02:00:15;;;;;;;6.50;2.17;;;9.00;99.90;;;;;;5020741;28;20026;-94
2023/11/21 02:02:45;;;;;;;7.03;1.95;;;9.00;99.90;;;;;;5007073;28;20539;-95
2023/11/21 02:05:14;;;;;;;7.35;2.05;;;8.90;99.90;;;;;;5024358;28;20034;-95
2023/11/21 02:07:42;;;;;;;4.53;2.40;;;8.90;99.90;;;;;;5007702;28;20064;-95
2023/11/21 02:10:08;;;;;;;;;;;8.90;99.90;;;;;;5007099;28;20022;-93
2023/11/21 02:12:35;;;;;;;3.40;1.70;;;8.80;99.90;;;;;;5006677;28;20272;-93
2023/11/21 02:15:09;;;;;;;4.68;2.42;;;8.70;99.90;;;;;;5024933;28;20488;-95
2023/11/21 02:17:35;;;;;;;8.50;2.35;;;8.70;99.90;;;;;;5025284;28;20025;-95
2023/11/21 02:20:02;;;;;;;6.47;3.03;;;8.70;99.90;;;;;;5024207;28;20030;-94
2023/11/21 02:22:33;;;;;;;8.45;2.65;;;8.70;99.90;;;;;;5005878;28;20026;-95
2023/11/21 02:24:59;;;;;;;9.45;3.17;;;8.60;99.90;;;;;;5024306;28;20053;-95
2023/11/21 02:27:27;;;;;;;11.13;2.90;;;8.60;99.90;;;;;;5024090;28;20065;-95
2023/11/21 02:29:52;;;;;;;7.32;2.13;;;8.50;99.90;;;;;;5023390;28;20022;-95
2023/11/21 02:32:19;;;;;;;5.32;2.53;;;8.50;99.90;;;;;;5022618;28;20097;-94
2023/11/21 02:34:45;;;;;;;7.55;2.67;;;8.50;99.90;;;;;;5023077;28;20521;-94
2023/11/21 02:37:10;;;;;;;7.20;3.00;;;8.50;99.90;;;;;;5007462;28;20030;-95
2023/11/21 02:39:36;;;;;;;7.05;3.20;;;8.50;99.90;;;;;;5020774;28;20030;-94
2023/11/21 02:42:01;;;;;;;6.00;2.30;;;8.40;99.90;;;;;;5009448;28;20094;-94
2023/11/21 02:44:27;;;;;;;7.63;2.75;;;8.50;99.90;;;;;;5027371;28;20076;-93
2023/11/21 02:46:53;;;;;;;8.57;2.65;;;8.40;99.90;;;;;;5027477;28;20479;-94
2023/11/21 02:49:18;;;;;;;8.48;2.85;;;8.50;99.90;;;;;;5026767;28;20034;-93
2023/11/21 02:51:44;;;;;;;4.93;2.55;;;8.50;99.90;;;;;;5003271;28;20121;-94
2023/11/21 02:54:10;;;;;;;4.07;2.17;;;8.50;99.90;;;;;;5027183;28;20030;-94
2023/11/21 02:56:37;;;;;;;6.88;2.63;;;8.50;99.90;;;;;;5019673;28;20022;-94
2023/11/21 02:59:03;;;;;;;5.38;2.63;;;8.50;99.90;;;;;;5027579;28;20070;-94
2023/11/21 03:01:29;;;;;;;4.82;2.03;;;8.50;99.90;;;;;;5027657;28;20026;-95
2023/11/21 03:03:55;;;;;;;7.43;2.67;;;8.50;99.90;;;;;;5026571;28;20029;-94
2023/11/21 03:06:21;;;;;;;8.45;2.42;;;8.50;99.90;;;;;;5019436;28;20037;-95
2023/11/21 03:08:47;;;;;;;5.47;2.22;;;8.50;99.90;;;;;;5027264;28;20081;-95
2023/11/21 03:11:13;;;;;;;5.57;2.30;;;8.50;99.90;;;;;;5026785;28;20033;-94
2023/11/21 03:13:41;;;;;;;5.90;2.33;;;8.40;99.90;;;;;;5026526;28;20022;-96
2023/11/21 03:16:08;;;;;;;4.05;2.50;;;8.50;99.90;;;;;;5026579;28;20041;-94
2023/11/21 03:18:34;;;;;;;3.70;2.65;;;8.50;99.90;;;;;;5026546;28;20026;-94
2023/11/21 03:21:00;;;;;;;6.00;2.17;;;8.40;99.90;;;;;;5026207;28;20121;-94
2023/11/21 03:23:25;;;;;;;3.63;2.08;;;8.50;99.90;;;;;;5023716;28;20076;-94
2023/11/21 03:25:51;;;;;;;2.78;2.17;;;8.50;99.90;;;;;;5020514;28;20026;-93
2023/11/21 03:28:16;;;;;;;7.03;2.42;;;8.50;99.90;;;;;;5008825;28;20022;-95
2023/11/21 03:30:42;;;;;;;7.00;2.58;;;8.50;99.90;;;;;;5009188;28;20048;-94
2023/11/21 03:33:08;;;;;;;6.05;2.20;;;8.50;99.90;;;;;;5014418;28;20025;-94
2023/11/21 03:35:33;;;;;;;5.75;1.90;;;8.40;99.90;;;;;;5026520;28;20022;-94
2023/11/21 03:37:59;;;;;;;5.03;2.17;;;8.50;99.90;;;;;;5027170;28;20045;-95
2023/11/21 03:40:25;;;;;;;5.05;2.95;;;8.40;99.90;;;;;;5026646;28;20018;-94
2023/11/21 03:42:50;;;;;;;3.30;2.67;;;8.40;99.90;;;;;;5009047;28;20014;-92
2023/11/21 03:45:16;;;;;;;11.02;2.30;;;8.40;99.90;;;;;;5026668;28;20037;-94
2023/11/21 03:47:42;;;;;;;5.60;2.33;;;8.40;99.90;;;;;;5030143;28;20033;-94
2023/11/21 03:50:11;;;;;;;5.82;1.85;;;8.50;99.90;;;;;;5022926;28;20497;-93
2023/11/21 03:52:37;;;;;;;5.85;2.05;;;8.40;99.90;;;;;;5009788;28;20019;-93
2023/11/21 03:55:03;;;;;;;4.40;2.03;;;8.40;99.90;;;;;;5016229;28;20062;-95
2023/11/21 03:57:28;;;;;;;9.15;3.95;;;8.40;99.90;;;;;;5028141;28;20022;-94
2023/11/21 03:59:54;;;;;;;3.53;2.35;;;8.40;99.90;;;;;;5026958;28;20090;-93
2023/11/21 04:02:20;;;;;;;5.07;2.05;;;8.40;99.90;;;;;;5027336;28;20288;-94
2023/11/21 04:04:45;;;;;;;3.53;1.92;;;8.40;99.90;;;;;;5026674;28;20034;-93
2023/11/21 04:07:13;;;;;;;3.97;2.17;;;8.50;99.90;;;;;;5026689;28;20094;-95
2023/11/21 04:09:39;;;;;;;5.35;2.92;;;8.50;99.90;;;;;;5027643;28;20022;-93
2023/11/21 04:12:05;;;;;;;3.40;2.10;;;8.50;99.90;;;;;;5025600;28;20045;-93
2023/11/21 04:14:31;;;;;;;4.88;2.40;;;8.50;99.90;;;;;;5025303;28;20037;-96
2023/11/21 04:16:57;;;;;;;5.40;3.80;;;8.50;99.90;;;;;;5026218;28;20038;-94
2023/11/21 04:19:23;;;;;;;5.30;2.35;;;8.40;99.90;;;;;;5006069;28;20023;-93
2023/11/21 04:21:48;;;;;;;5.38;2.50;;;8.50;99.90;;;;;;5007255;28;20029;-95
2023/11/21 04:24:14;;;;;;;5.03;2.70;;;8.50;99.90;;;;;;5024917;28;20030;-95
2023/11/21 04:26:40;;;;;;;5.45;2.83;;;8.50;99.90;;;;;;5026059;28;20048;-94
2023/11/21 04:29:06;;;;;;;10.18;4.93;;;8.50;99.90;;;;;;5025671;28;20135;-94
2023/11/21 04:31:31;;;;;;;4.43;2.75;;;8.40;99.90;;;;;;5025914;28;20029;-95
2023/11/21 04:33:57;;;;;;;5.65;2.97;;;8.50;99.90;;;;;;5026168;28;20077;-94
2023/11/21 04:36:23;;;;;;;5.60;3.08;;;8.50;99.90;;;;;;5008192;28;20053;-94
2023/11/21 04:38:48;;;;;;;6.00;3.50;;;8.50;99.90;;;;;;5020416;28;20034;-95
2023/11/21 04:41:14;;;;;;;4.28;2.55;;;8.50;99.90;;;;;;5028047;28;20029;-94
2023/11/21 04:43:40;;;;;;;5.15;2.20;;;8.50;99.90;;;;;;5026683;28;20033;-94
2023/11/21 04:46:06;;;;;;;6.82;2.67;;;8.50;99.90;;;;;;5026887;28;20030;-92
2023/11/21 04:48:32;;;;;;;6.03;2.75;;;8.50;99.90;;;;;;5017845;28;20030;-94
2023/11/21 04:50:58;;;;;;;6.30;2.42;;;8.50;99.90;;;;;;5026237;28;20025;-95
2023/11/21 04:53:24;;;;;;;9.00;3.47;;;8.60;99.90;;;;;;5026139;28;20032;-92
2023/11/21 04:55:49;;;;;;;4.97;3.40;;;8.50;99.90;;;;;;5009143;28;20042;-94
2023/11/21 04:58:15;;;;;;;8.50;3.45;;;8.60;99.90;;;;;;5008811;28;20025;-93
2023/11/21 05:00:41;;;;;;;8.02;3.15;;;8.60;99.90;;;;;;5006568;28;20030;-94
2023/11/21 05:03:07;;;;;;;5.28;4.00;;;8.60;99.90;;;;;;5007189;28;20026;-94
2023/11/21 05:05:33;;;;;;;10.93;3.90;;;8.60;99.90;;;;;;5026244;28;20045;-94
2023/11/21 05:07:59;;;;;;;7.15;3.33;;;8.60;99.90;;;;;;5027575;28;20033;-94
2023/11/21 05:10:25;;;;;;;8.63;3.17;;;8.60;99.90;;;;;;5025987;28;20034;-95
2023/11/21 05:12:51;;;;;;;6.18;3.70;;;8.60;99.90;;;;;;5026043;28;20061;-96
2023/11/21 05:15:17;;;;;;;10.32;3.40;;;8.60;99.90;;;;;;5025060;28;20091;-94
2023/11/21 05:17:44;;;;;;;5.20;2.92;;;8.60;99.90;;;;;;5026963;28;20026;-96
2023/11/21 05:20:13;;;;;;;6.50;4.35;;;8.50;99.90;;;;;;5010094;28;20100;-94
2023/11/21 05:22:40;;;;;;;5.45;4.72;;;8.50;99.90;;;;;;5024722;28;20030;-93
2023/11/21 05:25:09;;;;;;;6.93;3.65;;;8.50;99.90;;;;;;5025456;28;20049;-92
2023/11/21 05:27:35;;;;;;;9.75;4.35;;;8.50;99.90;;;;;;5023409;28;20025;-92
2023/11/21 05:30:05;;;;;;;7.32;3.22;;;8.50;99.90;;;;;;5022559;28;20046;-93
2023/11/21 05:32:31;;;;;;;7.65;3.90;;;8.50;99.90;;;;;;5022158;28;20026;-93
2023/11/21 05:34:57;;;;;;;6.35;3.97;;;8.50;99.90;;;;;;5023268;28;20060;-91
2023/11/21 05:37:23;;;;;;;8.00;3.20;;;8.50;99.90;;;;;;5024634;28;20018;-93
2023/11/21 05:39:49;;;;;;;12.52;4.85;;;8.50;99.90;;;;;;5007777;28;20041;-92
2023/11/21 05:42:15;;;;;;;36.40;13.30;;;8.50;99.90;;;;;;5025479;28;20041;-92
2023/11/21 05:44:43;;;;;;;12.80;6.00;;;8.50;99.90;;;;;;5007830;28;20026;-94
2023/11/21 05:47:08;;;;;;;8.02;4.55;;;8.50;99.90;;;;;;5025254;28;20042;-93
2023/11/21 05:49:35;;;;;;;14.32;5.95;;;8.50;99.90;;;;;;5004507;28;20032;-94
2023/11/21 05:52:01;;;;;;;7.30;4.78;;;8.50;99.90;;;;;;5006145;28;20026;-92
2023/11/21 05:54:26;;;;;;;9.40;5.85;;;8.50;99.90;;;;;;5003781;28;20508;-93
2023/11/21 05:56:52;;;;;;;9.93;4.97;;;8.50;99.90;;;;;;5006652;28;20086;-91
2023/11/21 05:59:20;;;;;;;8.43;5.03;;;8.50;99.90;;;;;;5005208;28;20503;-92
2023/11/21 06:01:46;;;;;;;12.32;5.53;;;8.50;99.90;;;;;;5006636;28;20034;-94
2023/11/21 06:04:13;;;;;;;15.63;6.57;;;8.50;99.90;;;;;;5024990;28;20080;-94
2023/11/21 06:06:38;;;;;;;22.85;10.57;;;8.50;99.90;;;;;;5025094;28;20052;-94
2023/11/21 06:09:05;;;;;;;7.03;4.22;;;8.50;99.90;;;;;;5024658;28;20469;-92
2023/11/21 06:11:32;;;;;;;8.65;4.80;;;8.50;99.90;;;;;;5026055;28;20021;-92
2023/11/21 06:13:59;;;;;;;8.90;5.82;;;8.50;99.90;;;;;;5031209;28;20042;-91
2023/11/21 06:16:29;;;;;;;7.40;4.30;;;8.50;99.90;;;;;;5032239;28;20109;-92
2023/11/21 06:19:17;;;;;;;7.72;4.57;;;8.50;99.90;;;;;;5036271;28;20029;-90
2023/11/21 06:21:47;;;;;;;9.45;5.28;;;8.50;99.90;;;;;;5033255;22;20064;-91
2023/11/21 06:24:12;;;;;;;8.38;4.30;;;8.50;99.90;;;;;;5020635;28;20105;-90
2023/11/21 06:26:38;;;;;;;10.90;7.05;;;8.50;99.90;;;;;;5018193;28;20057;-91
2023/11/21 06:29:04;;;;;;;15.57;6.72;;;8.50;99.90;;;;;;5019948;28;20033;-91
2023/11/21 06:31:32;;;;;;;10.40;5.90;;;8.50;99.90;;;;;;5035865;28;20025;-91
2023/11/21 06:33:59;;;;;;;10.32;5.35;;;8.50;99.90;;;;;;5033384;28;20029;-91
2023/11/21 06:36:26;;;;;;;16.77;7.80;;;8.50;99.90;;;;;;5037800;28;20095;-91
2023/11/21 06:38:52;;;;;;;11.25;5.00;;;8.50;99.90;;;;;;5037737;28;20033;-92
2023/11/21 06:41:18;;;;;;;12.73;6.97;;;8.50;99.90;;;;;;5037663;28;20162;-91
2023/11/21 06:43:46;;;;;;;14.93;7.00;;;8.50;99.90;;;;;;5039432;28;20139;-91
2023/11/21 06:46:15;;;;;;;15.70;6.95;;;8.50;99.90;;;;;;5041075;28;20056;-91
2023/11/21 06:48:45;;;;;;;10.65;6.38;;;8.40;99.90;;;;;;5034321;28;20109;-91
2023/11/21 06:51:10;;;;;;;22.92;8.07;;;8.50;99.90;;;;;;5039454;28;20025;-92
2023/11/21 06:53:37;;;;;;;12.63;7.65;;;8.50;99.90;;;;;;5040162;28;20079;-92
2023/11/21 06:56:03;;;;;;;12.90;6.68;;;8.50;99.90;;;;;;5036509;28;20017;-91
2023/11/21 06:58:29;;;;;;;14.35;6.75;;;8.50;99.90;;;;;;5042286;28;20033;-92
2023/11/21 07:00:54;;;;;;;15.63;6.45;;;8.50;99.90;;;;;;5044244;28;20026;-93
2023/11/21 07:03:20;;;;;;;15.48;7.13;;;8.40;99.90;;;;;;5036994;28;20041;-93
2023/11/21 07:05:46;;;;;;;14.32;6.63;;;8.50;99.90;;;;;;5041202;28;20056;-92
2023/11/21 07:08:14;;;;;;;12.20;7.32;;;8.50;99.90;;;;;;5032614;28;20045;-92
2023/11/21 07:10:42;;;;;;;13.82;7.68;;;8.50;99.90;;;;;;5041399;28;20516;-93
2023/11/21 07:13:12;;;;;;;14.52;7.05;;;8.50;99.90;;;;;;5041796;28;20022;-92
2023/11/21 07:15:38;;;;;;;17.35;7.47;;;8.50;99.90;;;;;;5034305;28;20026;-92
2023/11/21 07:18:03;;;;;;;13.43;7.70;;;8.50;99.90;;;;;;5044922;28;20053;-92
2023/11/21 07:20:30;;;;;;;15.27;7.05;;;8.50;99.90;;;;;;5045305;28;20403;-92
2023/11/21 07:22:56;;;;;;;16.48;7.50;;;8.50;99.90;;;;;;5038622;28;20022;-93
2023/11/21 07:25:22;;;;;;;13.77;6.72;;;8.50;99.90;;;;;;5044104;28;20032;-92
2023/11/21 07:27:47;;;;;;;12.73;7.22;;;8.60;99.90;;;;;;5043877;28;20029;-93
2023/11/21 07:30:13;;;;;;;10.73;6.65;;;8.60;99.90;;;;;;5044067;28;20396;-92
2023/11/21 07:32:39;;;;;;;12.63;8.43;;;8.50;99.90;;;;;;5043391;28;20022;-92
2023/11/21 07:35:06;;;;;;;12.93;7.28;;;8.50;99.90;;;;;;5045167;28;20048;-93
2023/11/21 07:37:32;;;;;;;16.27;8.57;;;8.60;99.90;;;;;;5024673;28;20641;-92
2023/11/21 07:39:58;;;;;;;14.25;7.07;;;8.60;99.90;;;;;;5041269;28;20022;-92
2023/11/21 07:42:26;;;;;;;13.55;7.43;;;8.50;99.90;;;;;;5040846;28;20032;-92
2023/11/21 07:44:52;;;;;;;13.60;7.60;;;8.50;99.90;;;;;;5039459;28;20017;-92
2023/11/21 07:47:17;;;;;;;16.90;7.80;;;8.60;99.90;;;;;;5040012;28;20561;-93
2023/11/21 07:49:44;;;;;;;13.50;6.85;;;8.60;99.90;;;;;;5029080;28;20373;-92
2023/11/21 07:52:10;;;;;;;16.13;7.47;;;8.60;99.90;;;;;;5019597;28;20029;-92
2023/11/21 07:54:36;;;;;;;12.52;6.03;;;8.60;99.90;;;;;;5034477;28;20028;-93
2023/11/21 07:57:04;;;;;;;8.68;6.15;;;8.60;99.90;;;;;;5037973;28;20044;-92
2023/11/21 07:59:29;;;;;;;11.95;6.50;;;8.60;99.90;;;;;;5038768;28;20052;-92
2023/11/21 08:01:55;;;;;;;11.77;6.60;;;8.60;99.90;;;;;;5034995;28;20026;-92
2023/11/21 08:04:21;;;;;;;8.10;4.72;;;8.70;99.90;;;;;;5035013;28;20119;-91
2023/11/21 08:06:56;;;;;;;12.32;5.30;;;8.60;99.90;;;;;;5015365;28;20141;-91
2023/11/21 08:09:23;;;;;;;10.48;6.78;;;8.60;99.90;;;;;;5025314;28;20661;-91
2023/11/21 08:11:49;;;;;;;13.27;5.70;;;8.70;99.90;;;;;;5027602;28;20022;-91
2023/11/21 08:14:18;;;;;;;9.90;5.70;;;8.60;99.90;;;;;;5025664;28;20565;-94
2023/11/21 08:16:44;;;;;;;19.83;10.57;;;8.60;99.90;;;;;;5023379;28;20079;-90
2023/11/21 08:19:11;;;;;;;16.17;11.95;;;8.70;99.90;;;;;;5027705;28;20029;-93
2023/11/21 08:21:39;;;;;;;12.93;7.70;;;8.70;99.90;;;;;;5027400;28;20495;-92
2023/11/21 08:24:10;;;;;;;12.13;6.35;;;8.70;99.90;;;;;;5026444;28;20049;-92
2023/11/21 08:26:37;;;;;;;12.70;6.78;;;8.70;99.90;;;;;;5025179;28;20467;-92
2023/11/21 08:29:03;;;;;;;11.88;7.10;;;8.70;99.90;;;;;;5026887;28;20128;-94
2023/11/21 08:31:29;;;;;;;12.32;6.72;;;8.70;99.90;;;;;;5026746;28;20049;-91
2023/11/21 08:33:55;;;;;;;15.30;10.10;;;8.70;99.90;;;;;;5028671;28;20101;-92
2023/11/21 08:36:32;;;;;;;10.60;6.07;;;8.70;99.90;;;;;;5024678;28;20029;-93
2023/11/21 08:38:58;;;;;;;11.75;7.57;;;8.80;99.90;;;;;;5008654;28;20112;-92
2023/11/21 08:41:24;;;;;;;10.80;7.05;;;8.80;99.90;;;;;;5029660;28;20101;-92
2023/11/21 08:43:50;;;;;;;14.98;7.82;;;8.90;99.90;;;;;;5029996;28;20021;-92
2023/11/21 08:46:19;;;;;;;11.38;6.20;;;8.90;99.90;;;;;;5022169;28;20045;-92
2023/11/21 08:48:45;;;;;;;11.02;6.00;;;8.90;99.90;;;;;;5026803;28;20044;-92
2023/11/21 08:51:11;;;;;;;11.02;5.88;;;8.90;99.90;;;;;;5016703;28;20108;-93
2023/11/21 08:53:37;;;;;;;10.00;7.32;;;9.00;99.90;;;;;;5028622;28;20253;-93
2023/11/21 08:56:04;;;;;;;9.73;6.97;;;9.00;99.90;;;;;;5023717;28;20056;-93
2023/11/21 08:58:32;;;;;;;10.13;6.47;;;9.10;99.90;;;;;;5028315;28;20048;-93
2023/11/21 09:00:58;;;;;;;;;;;9.10;99.90;;;;;;5029685;28;20033;-92
2023/11/21 09:03:24;;;;;;;10.43;7.07;;;9.10;99.90;;;;;;5008242;28;19913;-91
2023/11/21 09:05:50;;;;;;;9.30;5.70;;;9.20;99.90;;;;;;5024926;28;20052;-93
2023/11/21 09:08:20;;;;;;;7.93;5.18;;;9.20;99.90;;;;;;5029115;28;20068;-94
2023/11/21 09:10:47;;;;;;;11.32;6.20;;;9.30;99.90;;;;;;5009695;28;20009;-93
2023/11/21 09:13:16;;;;;;;7.72;5.63;;;9.30;99.90;;;;;;5030184;28;20033;-93
2023/11/21 09:15:46;;;;;;;9.60;5.25;;;9.30;99.90;;;;;;5028720;28;20021;-93
2023/11/21 09:18:15;;;;;;;7.65;4.78;;;9.20;99.90;;;;;;5027704;28;20056;-93
2023/11/21 09:20:50;;;;;;;8.57;5.00;;;9.30;99.90;;;;;;5012646;28;20021;-93
2023/11/21 09:23:16;;;;;;;9.38;4.95;;;9.30;99.90;;;;;;5014795;28;20025;-93
2023/11/21 09:25:45;;;;;;;8.15;4.72;;;9.40;99.90;;;;;;5010517;28;20103;-94
2023/11/21 09:28:19;;;;;;;11.25;6.38;;;9.40;99.90;;;;;;5028104;28;20022;-92
2023/11/21 09:31:08;;;;;;;9.50;5.93;;;9.40;99.90;;;;;;5028173;28;20079;-92
2023/11/21 09:33:34;;;;;;;11.57;6.30;;;9.40;99.90;;;;;;5030574;28;20088;-93
2023/11/21 09:36:04;;;;;;;10.65;5.82;;;9.30;99.90;;;;;;5006045;28;20109;-93
2023/11/21 09:38:30;;;;;;;9.20;4.60;;;9.40;99.90;;;;;;5025033;28;20037;-93
2023/11/21 09:40:58;;;;;;;9.88;5.85;;;9.40;99.90;;;;;;5026972;28;20052;-93
2023/11/21 09:43:27;;;;;;;13.05;7.45;;;9.40;99.90;;;;;;5011037;28;20057;-92
2023/11/21 09:46:02;;;;;;;11.48;5.70;;;9.40;99.90;;;;;;5024451;28;20025;-93
2023/11/21 09:48:30;;;;;;;11.45;7.45;;;9.40;99.90;;;;;;5025750;28;20254;-94
2023/11/21 09:50:57;;;;;;;12.55;6.78;;;9.40;99.90;;;;;;5027277;28;20029;-92
2023/11/21 09:53:24;;;;;;;12.13;5.93;;;9.50;99.90;;;;;;5026972;28;20507;-92
2023/11/21 09:55:54;;;;;;;12.05;6.90;;;9.40;99.90;;;;;;5019879;28;20078;-93
2023/11/21 09:58:24;;;;;;;12.77;6.72;;;9.40;99.90;;;;;;5025713;28;20045;-92
2023/11/21 10:00:59;;;;;;;13.93;6.97;;;9.40;99.90;;;;;;5023343;28;20025;-94
2023/11/21 10:03:25;;;;;;;12.77;6.43;;;9.50;99.90;;;;;;5026433;28;20045;-95
2023/11/21 10:05:53;;;;;;;13.63;7.65;;;9.40;99.90;;;;;;5022895;28;20041;-92
2023/11/21 10:08:19;;;;;;;;;;;9.40;99.90;;;;;;5028770;28;20040;-92
2023/11/21 10:10:49;;;;;;;9.85;6.03;;;9.30;99.90;;;;;;5032577;28;19908;-92
2023/11/21 10:13:47;;;;;;;10.57;4.90;;;9.30;99.90;;;;;;5029537;28;20049;-93
2023/11/21 10:16:18;;;;;;;9.02;5.88;;;9.40;99.90;;;;;;5027452;28;20032;-93
2023/11/21 10:18:45;;;;;;;9.25;4.65;;;9.30;99.90;;;;;;5026452;28;20021;-93
2023/11/21 10:21:11;;;;;;;10.02;5.25;;;9.30;99.90;;;;;;5030884;28;20063;-94
2023/11/21 10:23:37;;;;;;;8.68;4.75;;;9.30;99.90;;;;;;5032449;28;20022;-92
2023/11/21 10:26:05;;;;;;;11.98;6.57;;;9.30;99.90;;;;;;5008760;28;20017;-93
2023/11/21 10:28:37;;;;;;;8.23;5.55;;;9.30;99.90;;;;;;5034268;28;20029;-94
2023/11/21 10:31:09;;;;;;;7.88;4.97;;;9.30;99.90;;;;;;5016400;28;20018;-92
2023/11/21 10:33:35;;;;;;;10.13;5.53;;;9.30;99.90;;;;;;5032120;28;20108;-94
2023/11/21 10:36:02;;;;;;;7.88;4.75;;;9.20;99.90;;;;;;5024625;28;20057;-94
2023/11/21 10:38:42;;;;;;;8.23;4.95;;;9.20;99.90;;;;;;5012961;28;20033;-94
2023/11/21 10:41:15;;;;;;;8.13;4.15;;;9.20;99.90;;;;;;5032121;28;20017;-94
2023/11/21 10:43:41;;;;;;;10.57;5.10;;;9.30;99.90;;;;;;5030147;28;20068;-93
2023/11/21 10:46:07;;;;;;;14.02;5.88;;;9.30;99.90;;;;;;5005938;28;20055;-93
2023/11/21 10:48:44;;;;;;;9.77;5.13;;;9.30;99.90;;;;;;5013549;28;20110;-93
2023/11/21 10:51:09;;;;;;;8.95;5.63;;;9.30;99.90;;;;;;5030075;28;20021;-92
2023/11/21 10:53:42;;;;;;;8.75;5.53;;;9.30;99.90;;;;;;5028754;28;20100;-92
2023/11/21 10:56:17;;;;;;;9.18;5.40;;;9.30;99.90;;;;;;5023858;28;20028;-95
2023/11/21 10:58:43;;;;;;;8.82;6.18;;;9.20;99.90;;;;;;5029888;28;20089;-93
2023/11/21 11:01:14;;;;;;;82.35;30.83;;;9.20;99.90;;;;;;5030547;28;20025;-93
2023/11/21 11:03:44;;;;;;;13.05;6.78;;;9.30;99.90;;;;;;5033276;28;20077;-93
2023/11/21 11:06:13;;;;;;;5.75;4.03;;;9.30;99.90;;;;;;5029550;28;20053;-93
2023/11/21 11:08:39;;;;;;;7.78;5.20;;;9.30;99.90;;;;;;5034868;28;20044;-93
2023/11/21 11:11:06;;;;;;;7.53;4.72;;;9.30;99.90;;;;;;5035616;28;20097;-94
2023/11/21 11:13:32;;;;;;;6.43;4.32;;;9.20;99.90;;;;;;5031393;28;20128;-93
2023/11/21 11:16:01;;;;;;;6.18;4.40;;;9.20;99.90;;;;;;5012346;28;20021;-93
2023/11/21 11:18:39;;;;;;;6.50;4.25;;;9.10;99.90;;;;;;5035655;28;20053;-93
2023/11/21 11:21:30;;;;;;;8.20;4.32;;;9.10;99.90;;;;;;5034364;28;20112;-94
2023/11/21 11:24:26;;;;;;;8.23;5.10;;;9.10;99.90;;;;;;5017655;28;20029;-94
2023/11/21 11:27:25;;;;;;;9.90;5.03;;;9.10;99.90;;;;;;5011316;28;20034;-93
2023/11/21 11:30:15;;;;;;;7.55;5.10;;;9.10;99.90;;;;;;5029869;28;20026;-94
2023/11/21 11:32:58;;;;;;;8.60;5.55;;;9.10;99.90;;;;;;5031836;28;20029;-94
2023/11/21 11:35:41;;;;;;;9.85;6.47;;;9.00;99.90;;;;;;5011196;28;21533;-93
2023/11/21 11:38:07;;;;;;;9.82;6.18;;;9.10;99.90;;;;;;5030326;28;20037;-93
2023/11/21 11:40:47;;;;;;;11.10;7.18;;;9.20;99.90;;;;;;5032311;28;20029;-92
2023/11/21 11:43:27;;;;;;;15.80;10.73;;;9.20;99.90;;;;;;5013961;28;20021;-93
2023/11/21 11:46:03;;;;;;;13.63;8.82;;;9.20;99.90;;;;;;5030136;28;20029;-93
2023/11/21 11:48:30;;;;;;;11.43;6.93;;;9.20;99.90;;;;;;5022668;28;20443;-94
2023/11/21 11:51:20;;;;;;;9.55;6.32;;;9.20;99.90;;;;;;5029208;28;20085;-93
2023/11/21 11:53:47;;;;;;;11.35;7.65;;;9.20;99.90;;;;;;5034547;28;20087;-94
2023/11/21 11:56:22;;;;;;;13.50;8.63;;;9.20;99.90;;;;;;5033739;28;20056;-94
2023/11/21 11:59:08;;;;;;;11.70;6.72;;;9.20;99.90;;;;;;5036215;28;20021;-92
2023/11/21 12:01:35;;;;;;;13.05;7.07;;;9.20;99.90;;;;;;5037135;28;20105;-93
2023/11/21 12:04:23;;;;;;;11.85;7.38;;;9.30;99.90;;;;;;5019451;28;20029;-92
2023/11/21 12:06:52;;;;;;;14.82;7.45;;;9.20;99.90;;;;;;5032362;28;20075;-93
2023/11/21 12:09:26;;;;;;;10.40;6.43;;;9.30;99.90;;;;;;5037024;28;20667;-94
2023/11/21 12:11:54;;;;;;;11.10;6.35;;;9.30;99.90;;;;;;5037748;28;20531;-93
2023/11/21 12:14:20;;;;;;;11.90;8.40;;;9.20;99.90;;;;;;5033548;28;21931;-94
2023/11/21 12:16:48;;;;;;;8.23;6.20;;;9.20;99.90;;;;;;5012726;28;20123;-94
2023/11/21 12:19:13;;;;;;;10.02;6.75;;;9.20;99.90;;;;;;5035267;28;20033;-93
2023/11/21 12:24:42;;;;;;;10.55;5.65;;;9.20;99.90;;;;;;5030159;28;20492;-93
2023/11/21 12:27:08;;;;;;;11.68;7.10;;;9.20;99.90;;;;;;5011731;28;20057;-94
2023/11/21 12:29:34;;;;;;;11.48;6.95;;;9.20;99.90;;;;;;5015339;28;20052;-94
2023/11/21 12:32:20;;;;;;;;;;;;;;;;;;;;;
2023/11/21 12:34:56;;;;;;;11.55;8.82;;;9.20;99.90;;;;;;5007487;28;20635;-94
2023/11/21 12:37:34;;;;;;;11.27;6.85;;;9.20;99.90;;;;;;5034308;28;20029;-94
2023/11/21 12:40:17;;;;;;;14.38;10.38;;;9.30;99.90;;;;;;5029392;28;20027;-93
2023/11/21 12:43:09;;;;;;;10.43;6.32;;;9.40;99.90;;;;;;5039819;28;20018;-96
2023/11/21 12:45:42;;;;;;;12.70;6.70;;;9.40;99.90;;;;;;5042860;28;20024;-95
2023/11/21 12:48:08;;;;;;;12.77;6.63;;;9.40;99.90;;;;;;5042779;28;20033;-92
2023/11/21 12:50:36;;;;;;;11.32;7.43;;;9.40;99.90;;;;;;5025087;28;20035;-95
2023/11/21 12:53:09;;;;;;;10.25;6.75;;;9.40;99.90;;;;;;5029416;28;20028;-94
2023/11/21 12:55:42;;;;;;;7.95;5.90;;;9.50;99.90;;;;;;5009836;28;20048;-94
2023/11/21 12:58:12;;;;;;;11.50;7.75;;;9.50;99.90;;;;;;5013188;28;20013;-96
2023/11/21 13:00:56;;;;;;;15.35;7.75;;;9.50;99.90;;;;;;5030948;28;20855;-94
2023/11/21 13:03:29;;;;;;;14.68;9.20;;;9.50;99.90;;;;;;5030968;28;20041;-94